West Saint Paul, MN (55118)

10:36 PM CDT on May 23, 2015 (GMT -0500)
Cherokee | | Change Station
CLOSE
Current Station
Personal Weather Station
Location: Mendota Heights, MN
Elevation: 997 ft
Nearby Weather Stations

Elev 997 ft 44.92 °N, 93.11 °W | Updated 9 minutes ago

Mostly Cloudy
Mostly Cloudy
59.9 °F
Feels Like 59.9 °F
N
2.2
Wind Variable Wind from ENE

Today
High -- | Low -- °F
--% Chance of Precip.
Yesterday
High -- | Low -- °F
Precip. -- in
5:35 AM 8:43 PM
Waxing Crescent, 35% visible
Pressure 30.14 in
Visibility 10.0 miles
Clouds Clear
Dew Point 49 °F
Humidity 67%
Rainfall 0.00 in
Snow Depth Not available.
UV 0 out of 12
Pollen 6.40 out of 12
Air Quality Not available.
Flu Activity Sporadic
METAR KSTP 240253Z 10004KT 10SM CLR 17/08 A3014 RMK AO2 SLP204 T01670083 55004

More Conditions Fewer Conditions

Pressure 30.14 in
Visibility 10.0 miles
Clouds Clear
Dew Point 49 °F
Humidity 67%
Rainfall 0.00 in
Snow Depth Not available.
UV 0 out of 12
Pollen 6.40 out of 12
Air Quality Not available.
Flu Activity Sporadic
METAR KSTP 240253Z 10004KT 10SM CLR 17/08 A3014 RMK AO2 SLP204 T01670083 55004

More Conditions Fewer Conditions

10-Day Weather Forecast

Almanac

Astronomy

May. 23, 2015 Rise Set
Actual Time
Civil Twilight
Nautical Twilight
Astronomical Twilight
Moon
Length of Visible Light
Length of Day
Tomorrow will be .
, % of the Moon is Illuminated

Today's Extremes

State Highs State Lows

Community

WunderPhotos

Upload Photos

1,823,678 photos uploaded!

WunderBlogs® & News

Nearby

Air Quality

  Air Quality AQ Index Pollutant
Not available.

Snow Depth

Station Depth Elevation

Earthquake Activity

City Distance Mag. Time & Date
Minimum magnitude displayed is 2.5.

Coastal Water Temperatures

Place Temperature

Stations

Nearby Weather Stations

Station Location Temp. Windchill Dew Point Humidity Wind Precip. Elev Updated Type